createdAt,value
2023-02-19T00:01:19.908Z,10.46
2023-02-19T00:03:46.223Z,10.51
2023-02-19T00:06:12.547Z,10.45
2023-02-19T00:08:38.846Z,10.25
2023-02-19T00:11:05.116Z,10.13
2023-02-19T00:13:31.421Z,10.50
2023-02-19T00:15:57.763Z,10.32
2023-02-19T00:18:24.075Z,9.97
2023-02-19T00:20:50.385Z,10.07
2023-02-19T00:23:16.680Z,10.15
2023-02-19T00:25:42.968Z,10.14
2023-02-19T00:28:09.273Z,10.17
2023-02-19T00:30:35.567Z,9.92
2023-02-19T00:33:01.855Z,10.21
2023-02-19T00:35:28.167Z,10.23
2023-02-19T00:37:54.447Z,10.05
2023-02-19T00:40:20.735Z,10.15
2023-02-19T00:42:47.035Z,10.43
2023-02-19T00:45:13.324Z,10.20
2023-02-19T00:47:39.597Z,10.24
2023-02-19T00:50:05.880Z,10.38
2023-02-19T00:52:32.161Z,10.22
2023-02-19T00:54:58.446Z,10.23
2023-02-19T00:57:24.747Z,10.15
2023-02-19T00:59:51.019Z,9.94
2023-02-19T01:02:17.290Z,9.82
2023-02-19T01:04:43.661Z,9.93
2023-02-19T01:07:10.181Z,10.04
2023-02-19T01:09:36.463Z,9.86
2023-02-19T01:12:02.752Z,9.67
2023-02-19T01:14:29.033Z,9.90
2023-02-19T01:16:55.319Z,9.75
2023-02-19T01:19:21.609Z,9.99
2023-02-19T01:21:47.892Z,9.99
2023-02-19T01:24:14.181Z,9.93
2023-02-19T01:26:40.489Z,9.89
2023-02-19T01:29:06.757Z,9.79
2023-02-19T01:31:33.100Z,9.67
2023-02-19T01:33:59.452Z,9.75
2023-02-19T01:36:25.737Z,9.57
2023-02-19T01:38:52.154Z,9.83
2023-02-19T01:41:18.446Z,9.97
2023-02-19T01:43:44.733Z,9.95
2023-02-19T01:46:11.087Z,9.62
2023-02-19T01:48:37.421Z,9.85
2023-02-19T01:51:03.707Z,10.03
2023-02-19T01:53:29.985Z,9.85
2023-02-19T01:55:56.288Z,9.54
2023-02-19T01:58:22.682Z,9.88
2023-02-19T02:00:49.031Z,9.99
2023-02-19T02:03:15.356Z,9.56
2023-02-19T02:05:41.647Z,9.69
2023-02-19T02:08:07.939Z,10.03
2023-02-19T02:10:34.282Z,9.93
2023-02-19T02:13:00.569Z,10.19
2023-02-19T02:15:26.847Z,9.97
2023-02-19T02:17:53.137Z,10.33
2023-02-19T02:20:19.419Z,10.32
2023-02-19T02:22:45.699Z,10.16
2023-02-19T02:25:12.025Z,9.80
2023-02-19T02:27:38.440Z,9.66
2023-02-19T02:30:04.747Z,9.62
2023-02-19T02:32:31.078Z,10.00
2023-02-19T02:34:57.378Z,10.10
2023-02-19T02:37:23.656Z,10.31
2023-02-19T02:39:49.939Z,10.47
2023-02-19T02:42:16.224Z,10.38
2023-02-19T02:44:42.510Z,10.26
2023-02-19T02:47:08.813Z,10.20
2023-02-19T02:49:35.109Z,10.15
2023-02-19T02:52:01.388Z,10.23
2023-02-19T02:54:27.698Z,10.18
2023-02-19T02:56:53.992Z,10.02
2023-02-19T02:59:20.274Z,9.93
2023-02-19T03:01:46.578Z,9.98
2023-02-19T03:04:12.848Z,10.07
2023-02-19T03:06:39.121Z,10.09
2023-02-19T03:09:05.428Z,10.09
2023-02-19T03:11:33.322Z,10.20
2023-02-19T03:13:59.596Z,10.07
2023-02-19T03:16:25.958Z,10.24
2023-02-19T03:18:52.258Z,10.26
2023-02-19T03:21:18.537Z,10.25
2023-02-19T03:23:44.851Z,9.97
2023-02-19T03:26:11.140Z,10.06
2023-02-19T03:28:37.432Z,9.87
2023-02-19T03:31:03.725Z,10.02
2023-02-19T03:33:30.021Z,10.04
2023-02-19T03:35:56.298Z,10.26
2023-02-19T03:38:22.601Z,10.13
2023-02-19T03:40:48.884Z,9.99
2023-02-19T03:43:16.335Z,9.95
2023-02-19T03:45:42.639Z,9.93
2023-02-19T03:48:08.917Z,9.76
2023-02-19T03:50:35.203Z,9.73
2023-02-19T03:53:01.502Z,9.57
2023-02-19T03:55:27.778Z,9.68
2023-02-19T03:57:54.076Z,9.85
2023-02-19T04:00:20.367Z,9.71
2023-02-19T04:02:46.638Z,9.82
2023-02-19T04:05:14.197Z,9.94
2023-02-19T04:07:40.581Z,9.90
2023-02-19T04:10:06.863Z,9.82
2023-02-19T04:12:33.152Z,9.78
2023-02-19T04:15:02.211Z,9.88
2023-02-19T04:17:28.506Z,9.84
2023-02-19T04:19:54.784Z,9.88
2023-02-19T04:22:21.119Z,9.98
2023-02-19T04:24:47.410Z,10.01
2023-02-19T04:27:13.686Z,10.05
2023-02-19T04:29:39.971Z,9.92
2023-02-19T04:32:06.262Z,10.00
2023-02-19T04:34:32.570Z,10.07
2023-02-19T04:36:58.895Z,10.03
2023-02-19T04:39:25.173Z,10.03
2023-02-19T04:41:51.451Z,9.97
2023-02-19T04:44:17.785Z,9.88
2023-02-19T04:46:44.092Z,9.78
2023-02-19T04:49:10.375Z,9.81
2023-02-19T04:51:36.664Z,9.66
2023-02-19T04:54:02.945Z,9.77
2023-02-19T04:56:29.223Z,9.89
2023-02-19T04:58:55.642Z,10.05
2023-02-19T05:01:21.960Z,9.93
2023-02-19T05:03:51.096Z,9.95
2023-02-19T05:06:17.393Z,10.05
2023-02-19T05:08:43.668Z,10.13
2023-02-19T05:11:10.203Z,10.24
2023-02-19T05:13:36.711Z,10.32
2023-02-19T05:16:03.094Z,10.35
2023-02-19T05:18:29.398Z,10.05
2023-02-19T05:20:55.700Z,10.05
2023-02-19T05:23:21.977Z,10.07
2023-02-19T05:25:48.258Z,10.13
2023-02-19T05:28:14.603Z,10.61
2023-02-19T05:30:40.901Z,10.60
2023-02-19T05:33:07.200Z,10.64
2023-02-19T05:35:33.499Z,10.80
2023-02-19T05:37:59.776Z,10.87
2023-02-19T05:40:26.071Z,10.60
2023-02-19T05:42:52.374Z,10.95
2023-02-19T05:45:18.664Z,10.88
2023-02-19T05:47:44.949Z,11.04
2023-02-19T05:50:11.252Z,10.95
2023-02-19T05:52:37.530Z,10.91
2023-02-19T05:55:03.825Z,10.65
2023-02-19T05:57:30.139Z,10.72
2023-02-19T05:59:56.562Z,10.66
2023-02-19T06:02:24.983Z,10.66
2023-02-19T06:04:51.312Z,10.51
2023-02-19T06:07:17.590Z,10.55
2023-02-19T06:09:43.867Z,10.48
2023-02-19T06:12:10.171Z,10.55
2023-02-19T06:14:36.448Z,10.57
2023-02-19T06:17:02.737Z,10.64
2023-02-19T06:19:29.077Z,10.79
2023-02-19T06:21:55.403Z,10.88
2023-02-19T06:24:21.682Z,10.82
2023-02-19T06:26:47.992Z,10.92
2023-02-19T06:29:14.280Z,10.98
2023-02-19T06:31:40.632Z,10.95
2023-02-19T06:34:07.056Z,10.99
2023-02-19T06:36:33.361Z,10.95
2023-02-19T06:38:59.639Z,10.85
2023-02-19T06:41:25.925Z,10.75
2023-02-19T06:43:52.196Z,10.75
2023-02-19T06:46:18.528Z,10.61
2023-02-19T06:48:44.864Z,10.77
2023-02-19T06:51:11.337Z,10.87
2023-02-19T06:53:37.806Z,11.01
2023-02-19T06:56:04.134Z,10.98
2023-02-19T06:58:30.437Z,11.02
2023-02-19T07:00:56.808Z,10.57
2023-02-19T07:03:23.132Z,10.81
2023-02-19T07:05:49.410Z,10.75
2023-02-19T07:08:15.716Z,10.84
2023-02-19T07:10:42.011Z,10.87
2023-02-19T07:13:08.294Z,10.79
2023-02-19T07:15:34.576Z,11.07
2023-02-19T07:18:00.879Z,10.82
2023-02-19T07:20:27.163Z,10.67
2023-02-19T07:22:53.457Z,11.11
2023-02-19T07:25:19.871Z,11.27
2023-02-19T07:27:46.148Z,11.23
2023-02-19T07:30:12.453Z,11.13
2023-02-19T07:32:38.782Z,11.14
2023-02-19T07:35:05.058Z,11.01
2023-02-19T07:37:31.340Z,11.08
2023-02-19T07:39:58.098Z,11.29
2023-02-19T07:42:24.384Z,11.40
2023-02-19T07:44:50.674Z,11.25
2023-02-19T07:47:16.964Z,11.40
2023-02-19T07:49:43.234Z,11.28
2023-02-19T07:52:09.513Z,11.50
2023-02-19T07:54:35.807Z,11.83
2023-02-19T07:57:02.097Z,12.06
2023-02-19T07:59:28.384Z,12.18
2023-02-19T08:01:54.693Z,12.10
2023-02-19T08:04:20.982Z,12.13
2023-02-19T08:06:47.273Z,12.41
2023-02-19T08:09:13.584Z,12.43
2023-02-19T08:11:39.863Z,12.67
2023-02-19T08:14:06.135Z,12.68
2023-02-19T08:16:42.462Z,12.84
2023-02-19T08:19:09.096Z,13.16
2023-02-19T08:21:35.410Z,13.36
2023-02-19T08:24:01.696Z,13.37
2023-02-19T08:26:30.980Z,13.84
2023-02-19T08:28:57.296Z,14.06
2023-02-19T08:31:24.313Z,13.73
2023-02-19T08:33:51.004Z,13.86
2023-02-19T08:36:17.316Z,13.83
2023-02-19T08:38:43.608Z,14.00
2023-02-19T08:41:10.284Z,14.38
2023-02-19T08:43:36.800Z,14.35
2023-02-19T08:46:03.106Z,14.36
2023-02-19T08:48:29.408Z,14.25
2023-02-19T08:50:55.735Z,14.67
2023-02-19T08:53:22.012Z,14.33
2023-02-19T08:55:48.293Z,14.11
2023-02-19T08:58:14.591Z,14.33
2023-02-19T09:00:40.879Z,14.22
2023-02-19T09:03:07.151Z,14.78
2023-02-19T09:05:33.443Z,14.88
2023-02-19T09:07:59.707Z,15.35
2023-02-19T09:10:25.984Z,15.30
2023-02-19T09:12:52.257Z,15.39
2023-02-19T09:15:18.560Z,15.60
2023-02-19T09:17:44.832Z,15.24
2023-02-19T09:20:11.129Z,15.90
2023-02-19T09:22:37.410Z,16.44
2023-02-19T09:25:03.707Z,16.32
2023-02-19T09:27:30.018Z,15.94
2023-02-19T09:29:56.296Z,16.02
2023-02-19T09:32:22.579Z,15.47
2023-02-19T09:34:48.879Z,16.25
2023-02-19T09:37:15.163Z,16.44
2023-02-19T09:39:41.435Z,16.42
2023-02-19T09:42:07.732Z,16.49
2023-02-19T09:44:34.014Z,15.91
2023-02-19T09:47:00.284Z,16.55
2023-02-19T09:49:26.650Z,17.00
2023-02-19T09:51:52.919Z,17.02
2023-02-19T09:54:19.210Z,16.86
2023-02-19T09:56:45.501Z,16.67
2023-02-19T09:59:12.013Z,17.15
2023-02-19T10:01:38.319Z,17.44
2023-02-19T10:04:04.645Z,17.16
2023-02-19T10:06:30.938Z,16.79
2023-02-19T10:08:57.221Z,17.25
2023-02-19T10:11:23.502Z,17.60
2023-02-19T10:13:49.790Z,17.42
2023-02-19T10:16:16.126Z,17.52
2023-02-19T10:18:42.480Z,16.94
2023-02-19T10:21:09.042Z,17.42
2023-02-19T10:23:35.535Z,17.89
2023-02-19T10:26:01.833Z,17.78
2023-02-19T10:28:28.144Z,17.94
2023-02-19T10:30:54.467Z,17.82
2023-02-19T10:33:20.775Z,17.96
2023-02-19T10:35:47.054Z,17.80
2023-02-19T10:38:13.331Z,18.49
2023-02-19T10:40:39.624Z,18.36
2023-02-19T10:43:05.902Z,18.27
2023-02-19T10:45:32.190Z,17.91
2023-02-19T10:47:58.479Z,17.83
2023-02-19T10:50:24.777Z,17.59
2023-02-19T10:52:51.068Z,17.89
2023-02-19T10:55:19.435Z,18.01
2023-02-19T10:57:45.710Z,18.10
2023-02-19T11:00:12.011Z,17.67
2023-02-19T11:02:38.323Z,17.56
2023-02-19T11:05:04.611Z,18.24
2023-02-19T11:07:30.914Z,18.16
2023-02-19T11:09:57.200Z,18.19
2023-02-19T11:12:23.473Z,18.52
2023-02-19T11:14:49.740Z,18.04
2023-02-19T11:17:16.172Z,18.48
2023-02-19T11:19:42.470Z,18.45
2023-02-19T11:22:08.773Z,18.38
2023-02-19T11:24:35.168Z,18.27
2023-02-19T11:27:01.482Z,18.67
2023-02-19T11:29:27.771Z,19.05
2023-02-19T11:31:54.139Z,18.86
2023-02-19T11:34:20.601Z,19.10
2023-02-19T11:36:46.889Z,18.63
2023-02-19T11:39:13.187Z,18.76
2023-02-19T11:41:39.482Z,18.83
2023-02-19T11:44:05.760Z,18.76
2023-02-19T11:46:32.091Z,18.83
2023-02-19T11:48:58.387Z,18.76
2023-02-19T11:51:24.674Z,18.80
2023-02-19T11:53:50.973Z,18.23
2023-02-19T11:56:17.266Z,18.54
2023-02-19T11:58:43.547Z,18.61
2023-02-19T12:01:10.214Z,19.34
2023-02-19T12:03:36.691Z,19.56
2023-02-19T12:06:02.983Z,18.96
2023-02-19T12:08:29.338Z,19.03
2023-02-19T12:10:55.654Z,19.08
2023-02-19T12:13:21.929Z,18.16
2023-02-19T12:15:48.232Z,18.45
2023-02-19T12:18:14.517Z,18.36
2023-02-19T12:20:40.809Z,18.25
2023-02-19T12:23:07.165Z,18.49
2023-02-19T12:25:34.763Z,18.65
2023-02-19T12:28:01.231Z,18.73
2023-02-19T12:30:27.629Z,18.01
2023-02-19T12:32:53.940Z,18.94
2023-02-19T12:35:20.217Z,18.23
2023-02-19T12:37:46.538Z,18.67
2023-02-19T12:40:12.849Z,18.74
2023-02-19T12:42:39.129Z,18.27
2023-02-19T12:45:05.436Z,18.10
2023-02-19T12:47:31.721Z,17.83
2023-02-19T12:49:58.030Z,17.87
2023-02-19T12:52:24.318Z,17.74
2023-02-19T12:54:50.606Z,18.02
2023-02-19T12:57:16.899Z,18.61
2023-02-19T12:59:43.213Z,18.09
2023-02-19T13:02:09.540Z,18.48
2023-02-19T13:04:35.835Z,18.03
2023-02-19T13:07:02.169Z,18.27
2023-02-19T13:09:28.468Z,18.21
2023-02-19T13:11:54.791Z,17.91
2023-02-19T13:14:21.126Z,17.70
2023-02-19T13:16:47.457Z,18.32
2023-02-19T13:19:13.793Z,18.34
2023-02-19T13:21:40.100Z,18.29
2023-02-19T13:24:06.373Z,18.18
2023-02-19T13:26:32.655Z,18.11
2023-02-19T13:28:58.955Z,18.05
2023-02-19T13:31:25.369Z,17.98
2023-02-19T13:33:51.674Z,17.96
2023-02-19T13:36:17.973Z,17.84
2023-02-19T13:38:44.251Z,17.82
2023-02-19T13:41:10.832Z,17.57
2023-02-19T13:43:37.330Z,18.25
2023-02-19T13:46:03.646Z,17.49
2023-02-19T13:48:29.953Z,18.03
2023-02-19T13:50:56.241Z,17.74
2023-02-19T13:53:22.510Z,17.14
2023-02-19T13:55:48.781Z,17.54
2023-02-19T13:58:15.074Z,17.37
2023-02-19T14:00:41.363Z,17.46
2023-02-19T14:03:07.657Z,17.29
2023-02-19T14:05:33.954Z,17.39
2023-02-19T14:08:00.229Z,17.25
2023-02-19T14:10:26.499Z,17.23
2023-02-19T14:12:52.835Z,17.47
2023-02-19T14:15:19.115Z,17.02
2023-02-19T14:17:45.389Z,16.49
2023-02-19T14:20:11.768Z,16.59
2023-02-19T14:22:38.058Z,16.44
2023-02-19T14:25:04.346Z,15.95
2023-02-19T14:27:30.631Z,15.52
2023-02-19T14:29:56.916Z,15.58
2023-02-19T14:32:23.413Z,15.53
2023-02-19T14:34:50.248Z,16.14
2023-02-19T14:37:16.513Z,15.64
2023-02-19T14:39:42.813Z,16.00
2023-02-19T14:42:09.122Z,15.68
2023-02-19T14:44:35.398Z,15.08
2023-02-19T14:47:01.700Z,15.44
2023-02-19T14:49:28.052Z,15.62
2023-02-19T14:51:54.367Z,15.82
2023-02-19T14:54:20.683Z,15.61
2023-02-19T14:56:47.033Z,15.78
2023-02-19T14:59:13.313Z,15.37
2023-02-19T15:01:39.746Z,14.99
2023-02-19T15:04:06.086Z,14.97
2023-02-19T15:06:32.364Z,15.09
2023-02-19T15:08:58.644Z,15.22
2023-02-19T15:11:24.949Z,15.37
2023-02-19T15:13:51.230Z,15.20
2023-02-19T15:16:17.550Z,14.75
2023-02-19T15:18:43.916Z,14.48
2023-02-19T15:21:10.503Z,14.60
2023-02-19T15:23:36.896Z,14.44
2023-02-19T15:26:03.202Z,14.41
2023-02-19T15:28:29.502Z,14.27
2023-02-19T15:30:55.814Z,14.18
2023-02-19T15:33:22.132Z,13.80
2023-02-19T15:35:48.423Z,13.85
2023-02-19T15:38:14.765Z,13.86
2023-02-19T15:40:41.060Z,14.02
2023-02-19T15:43:07.484Z,13.88
2023-02-19T15:45:33.765Z,13.94
2023-02-19T15:48:00.099Z,13.91
2023-02-19T15:50:26.386Z,13.15
2023-02-19T15:52:52.689Z,13.51
2023-02-19T15:55:18.994Z,13.36
2023-02-19T15:57:45.272Z,13.78
2023-02-19T16:00:11.605Z,13.80
2023-02-19T16:02:37.927Z,13.43
2023-02-19T16:05:04.231Z,13.69
2023-02-19T16:07:31.113Z,13.60
2023-02-19T16:09:57.423Z,13.80
2023-02-19T16:12:23.693Z,13.41
2023-02-19T16:14:49.989Z,13.67
2023-02-19T16:17:16.366Z,13.39
2023-02-19T16:19:42.646Z,13.60
2023-02-19T16:22:08.925Z,13.33
2023-02-19T16:24:35.265Z,13.63
2023-02-19T16:27:01.556Z,13.41
2023-02-19T16:29:27.848Z,13.39
2023-02-19T16:31:54.180Z,13.29
2023-02-19T16:34:20.506Z,13.43
2023-02-19T16:36:46.790Z,12.84
2023-02-19T16:39:13.092Z,12.62
2023-02-19T16:41:39.372Z,12.92
2023-02-19T16:44:05.645Z,13.06
2023-02-19T16:46:31.943Z,13.09
2023-02-19T16:48:58.221Z,12.58
2023-02-19T16:51:24.666Z,12.56
2023-02-19T16:53:50.974Z,12.75
2023-02-19T16:56:17.263Z,12.79
2023-02-19T16:58:43.636Z,13.04
2023-02-19T17:01:10.207Z,12.94
2023-02-19T17:03:36.700Z,12.60
2023-02-19T17:06:03.017Z,12.38
2023-02-19T17:08:29.300Z,12.45
2023-02-19T17:10:56.285Z,12.27
2023-02-19T17:13:22.626Z,12.43
2023-02-19T17:15:48.991Z,12.36
2023-02-19T17:18:15.268Z,12.47
2023-02-19T17:20:41.562Z,12.57
2023-02-19T17:23:07.861Z,12.48
2023-02-19T17:25:34.133Z,12.99
2023-02-19T17:28:00.419Z,12.71
2023-02-19T17:30:26.812Z,12.82
2023-02-19T17:32:53.132Z,12.83
2023-02-19T17:35:19.419Z,12.46
2023-02-19T17:37:45.705Z,12.89
2023-02-19T17:40:12.823Z,13.03
2023-02-19T17:42:40.160Z,13.03
2023-02-19T17:45:06.436Z,12.63
2023-02-19T17:47:32.706Z,12.79
2023-02-19T17:49:58.987Z,12.49
2023-02-19T17:52:25.335Z,12.29
2023-02-19T17:54:51.613Z,12.27
2023-02-19T17:57:17.891Z,12.04
2023-02-19T17:59:44.169Z,12.49
2023-02-19T18:02:10.459Z,12.46
2023-02-19T18:04:37.966Z,12.10
2023-02-19T18:07:05.294Z,12.76
2023-02-19T18:09:31.575Z,12.42
2023-02-19T18:11:57.856Z,12.80
2023-02-19T18:14:24.155Z,12.62
2023-02-19T18:16:50.833Z,12.82
2023-02-19T18:19:17.233Z,12.91
2023-02-19T18:21:43.532Z,12.64
2023-02-19T18:24:09.805Z,12.79
2023-02-19T18:26:36.087Z,12.77
2023-02-19T18:29:02.392Z,12.67
2023-02-19T18:31:28.713Z,12.53
2023-02-19T18:33:55.018Z,12.15
2023-02-19T18:36:21.364Z,12.37
2023-02-19T18:38:47.643Z,11.82
2023-02-19T18:41:14.352Z,11.80
2023-02-19T18:43:40.930Z,12.00
2023-02-19T18:46:07.232Z,11.95
2023-02-19T18:48:33.520Z,12.31
2023-02-19T18:50:59.822Z,12.15
2023-02-19T18:53:26.102Z,12.54
2023-02-19T18:55:52.375Z,12.37
2023-02-19T18:58:18.701Z,12.07
2023-02-19T19:00:44.999Z,12.11
2023-02-19T19:03:11.292Z,12.31
2023-02-19T19:05:37.583Z,12.15
2023-02-19T19:08:03.864Z,11.99
2023-02-19T19:10:30.145Z,12.01
2023-02-19T19:12:56.454Z,12.11
2023-02-19T19:15:22.741Z,12.01
2023-02-19T19:17:49.029Z,12.05
2023-02-19T19:20:15.334Z,12.17
2023-02-19T19:22:41.629Z,12.16
2023-02-19T19:25:07.918Z,12.21
2023-02-19T19:27:34.225Z,12.12
2023-02-19T19:30:00.557Z,11.99
2023-02-19T19:32:26.862Z,11.94
2023-02-19T19:34:53.181Z,12.08
2023-02-19T19:37:19.483Z,12.22
2023-02-19T19:39:45.766Z,11.45
2023-02-19T19:42:12.101Z,11.12
2023-02-19T19:44:38.421Z,11.21
2023-02-19T19:47:04.707Z,11.49
2023-02-19T19:49:31.002Z,11.26
2023-02-19T19:51:58.619Z,10.77
2023-02-19T19:54:24.984Z,10.95
2023-02-19T19:56:51.293Z,11.20
2023-02-19T19:59:17.584Z,10.83
2023-02-19T20:01:43.908Z,11.10
2023-02-19T20:04:10.250Z,11.18
2023-02-19T20:06:36.525Z,11.00
2023-02-19T20:09:02.834Z,11.24
2023-02-19T20:11:29.144Z,11.13
2023-02-19T20:13:55.439Z,10.97
2023-02-19T20:16:21.727Z,10.85
2023-02-19T20:18:48.027Z,10.97
2023-02-19T20:21:14.679Z,10.68
2023-02-19T20:23:41.088Z,10.84
2023-02-19T20:26:07.382Z,11.59
2023-02-19T20:28:33.798Z,11.44
2023-02-19T20:31:00.130Z,11.42
2023-02-19T20:33:26.458Z,10.64
2023-02-19T20:35:52.737Z,10.62
2023-02-19T20:38:19.031Z,10.66
2023-02-19T20:40:45.349Z,11.37
2023-02-19T20:43:11.632Z,10.68
2023-02-19T20:45:37.916Z,10.40
2023-02-19T20:48:04.263Z,10.66
2023-02-19T20:50:30.578Z,10.48
2023-02-19T20:52:56.861Z,10.84
2023-02-19T20:55:25.997Z,10.84
2023-02-19T20:57:52.299Z,10.74
2023-02-19T21:00:18.583Z,10.33
2023-02-19T21:02:44.932Z,10.67
2023-02-19T21:05:11.278Z,10.40
2023-02-19T21:07:37.561Z,10.40
2023-02-19T21:10:03.875Z,10.23
2023-02-19T21:12:30.168Z,10.20
2023-02-19T21:14:56.440Z,10.51
2023-02-19T21:17:22.735Z,10.71
2023-02-19T21:19:50.281Z,10.85
2023-02-19T21:22:16.622Z,10.91
2023-02-19T21:24:42.939Z,10.61
2023-02-19T21:27:09.221Z,10.38
2023-02-19T21:29:35.519Z,10.55
2023-02-19T21:32:01.944Z,10.60
2023-02-19T21:34:28.353Z,10.18
2023-02-19T21:36:54.638Z,10.01
2023-02-19T21:39:20.943Z,10.25
2023-02-19T21:41:47.220Z,9.75
2023-02-19T21:44:13.497Z,9.80
2023-02-19T21:46:39.800Z,9.56
2023-02-19T21:49:06.081Z,10.04
2023-02-19T21:51:32.353Z,9.60
2023-02-19T21:53:59.455Z,9.75
2023-02-19T21:56:25.739Z,10.24
2023-02-19T21:58:53.104Z,9.45
2023-02-19T22:01:19.382Z,9.46
2023-02-19T22:03:45.669Z,9.66
2023-02-19T22:06:12.328Z,9.87
2023-02-19T22:08:38.841Z,10.02
2023-02-19T22:11:05.123Z,10.40
2023-02-19T22:13:31.407Z,10.54
2023-02-19T22:15:57.719Z,10.50
2023-02-19T22:18:23.998Z,10.40
2023-02-19T22:20:50.276Z,9.56
2023-02-19T22:23:16.585Z,8.65
2023-02-19T22:25:42.866Z,9.04
2023-02-19T22:28:09.149Z,9.20
2023-02-19T22:30:35.474Z,9.35
2023-02-19T22:33:01.810Z,9.09
2023-02-19T22:35:28.085Z,9.13
2023-02-19T22:37:54.385Z,9.00
2023-02-19T22:40:20.652Z,9.07
2023-02-19T22:42:46.929Z,8.73
2023-02-19T22:45:13.226Z,8.99
2023-02-19T22:47:39.517Z,9.48
2023-02-19T22:50:05.815Z,9.21
2023-02-19T22:52:32.104Z,9.04
2023-02-19T22:54:58.385Z,8.95
2023-02-19T22:57:24.801Z,8.92
2023-02-19T22:59:51.141Z,9.02
2023-02-19T23:02:17.439Z,9.52
2023-02-19T23:04:43.723Z,9.05
2023-02-19T23:07:10.094Z,9.28
2023-02-19T23:09:36.436Z,9.33
2023-02-19T23:12:02.730Z,8.78
2023-02-19T23:14:29.052Z,8.63
2023-02-19T23:16:55.410Z,8.35
2023-02-19T23:19:21.740Z,8.51
2023-02-19T23:21:48.422Z,8.75
2023-02-19T23:24:14.702Z,9.33
2023-02-19T23:26:40.977Z,9.28
2023-02-19T23:29:07.268Z,9.72
2023-02-19T23:31:33.593Z,9.57
2023-02-19T23:33:59.911Z,8.89
2023-02-19T23:36:26.207Z,8.81
2023-02-19T23:38:52.490Z,8.69
2023-02-19T23:41:18.863Z,8.28
2023-02-19T23:43:45.151Z,8.77
2023-02-19T23:46:11.804Z,8.29
2023-02-19T23:48:38.441Z,8.70
2023-02-19T23:51:04.742Z,8.09
2023-02-19T23:53:31.036Z,8.66
2023-02-19T23:55:57.317Z,8.16
2023-02-19T23:58:23.612Z,8.61
